首页
METAR-TAF:

METAR-TAF

机场 :

Vigo

維戈, 西班牙

纬度: 42-13N, 经度: 008-38W, 海拔: 264米

当前天气观测

该预报发布于35分钟前的04:30 UTC
风速1节,风向多变
温度 5°C
湿度 81%
气压 1020 hPa
能见度10公里或以上
1500米以下无云,无积雨云

METAR: LEVX 220430Z VRB01KT CAVOK 05/02 Q1020 NOSIG

时间: 06:05 (05:05 UTC)

预报

该预报发布于6小时和5分钟前的23:00 UTC
预报有效从22日的 00点(UTC)到 22日的 24点(UTC)
风速9节,风向东转东北
能见度10公里或以上
1500米以下无云,无积雨云

TAF: LEVX 212300Z 2200/2224 06009KT CAVOK TX13/2214Z TN04/2207Z

超过4000个机场的气象观测和天气预报(METAR&TAF报告)。

可查询的气象台以黄色和红色小点在地图上表示。

将鼠标移到小点上方,可查看气象台名称。

然后点击查看天气观测和预报。

如需切换地图:点击带黑十字的绿色按钮放大地图;点击带横线的绿色按钮缩小地图;或者点击绿色箭头查看邻近地区的地图。


METAR-TAF: